Time;durP1;ratioP1;P1;durP2;ratioP2;P2;SDS_P1;SDS_P2;PMS_P1;PMS_P2;Temp;Humidity;BMP_temperature;BMP_pressure;BME280_temperature;BME280_humidity;BME280_pressure;Samples;Min_cycle;Max_cycle;Signal;HPM_P1;HPM_P2
2022/01/30 00:01:42;;;;;;;19.40;3.65;;;13.40;64.20;;;;;;5063423;28;20114;-75
2022/01/30 00:04:08;;;;;;;13.63;3.50;;;13.40;64.30;;;;;;5098248;28;20059;-75
2022/01/30 00:06:33;;;;;;;14.02;3.97;;;13.50;64.30;;;;;;5080673;28;20048;-76
2022/01/30 00:08:59;;;;;;;13.80;3.95;;;13.40;64.00;;;;;;5097829;28;20131;-76
2022/01/30 00:11:30;;;;;;;15.82;3.58;;;13.40;64.10;;;;;;5097612;28;20050;-74
2022/01/30 00:13:57;;;;;;;18.73;4.13;;;13.40;64.50;;;;;;5061955;28;20379;-74
2022/01/30 00:16:25;;;;;;;12.48;3.50;;;13.40;64.00;;;;;;5059795;28;20123;-74
2022/01/30 00:19:08;;;;;;;15.38;4.00;;;13.40;64.20;;;;;;5059919;28;20486;-75
2022/01/30 00:21:39;;;;;;;11.90;3.03;;;13.40;64.30;;;;;;5077530;28;20084;-74
2022/01/30 00:24:12;;;;;;;16.60;3.85;;;13.30;64.20;;;;;;5076773;28;20052;-74
2022/01/30 00:26:39;;;;;;;16.10;3.75;;;13.30;64.30;;;;;;5077196;28;20063;-75
2022/01/30 00:29:06;;;;;;;17.50;3.60;;;13.30;64.70;;;;;;5077340;28;20056;-74
2022/01/30 00:31:33;;;;;;;15.80;3.58;;;13.30;64.60;;;;;;5059218;28;20049;-74
2022/01/30 00:33:59;;;;;;;14.52;3.08;;;13.20;64.70;;;;;;5077337;28;20056;-75
2022/01/30 00:36:26;;;;;;;13.35;3.22;;;13.20;64.80;;;;;;5060158;28;20051;-73
2022/01/30 00:38:52;;;;;;;16.33;3.33;;;13.30;65.00;;;;;;5059667;28;20058;-75
2022/01/30 00:41:18;;;;;;;17.02;3.72;;;13.20;64.90;;;;;;5060047;28;20048;-74
2022/01/30 00:43:43;;;;;;;19.10;4.22;;;13.20;64.90;;;;;;5059071;28;20450;-74
2022/01/30 00:46:09;;;;;;;16.80;4.05;;;13.20;64.90;;;;;;5077222;28;20108;-74
2022/01/30 00:48:35;;;;;;;15.43;3.60;;;13.20;64.80;;;;;;5076844;28;20076;-75
2022/01/30 00:51:01;;;;;;;15.18;4.25;;;13.20;65.00;;;;;;5077029;28;20076;-74
2022/01/30 00:53:27;;;;;;;14.00;3.92;;;13.20;65.20;;;;;;5076295;28;20052;-75
2022/01/30 00:55:53;;;;;;;13.20;3.83;;;13.20;65.00;;;;;;5076446;28;20059;-75
2022/01/30 00:58:18;;;;;;;19.88;4.10;;;13.20;64.90;;;;;;5076839;28;20125;-75
2022/01/30 01:00:44;;;;;;;14.18;3.78;;;13.20;64.60;;;;;;5076857;28;20063;-74
2022/01/30 01:03:10;;;;;;;14.30;3.80;;;13.20;64.60;;;;;;5059378;28;20048;-75
2022/01/30 01:05:37;;;;;;;16.65;3.88;;;13.20;64.50;;;;;;5076796;28;20056;-75
2022/01/30 01:08:12;;;;;;;9.65;3.17;;;13.10;64.50;;;;;;5075596;28;20379;-74
2022/01/30 01:23:53;;;;;;;19.08;3.85;;;13.10;64.30;;;;;;5077935;28;20060;-74
2022/01/30 01:26:21;;;;;;;18.57;4.10;;;13.10;63.40;;;;;;5058552;28;20056;-74
2022/01/30 01:28:47;;;;;;;14.55;3.70;;;13.00;63.80;;;;;;5076513;28;20044;-73
2022/01/30 01:31:13;;;;;;;13.77;4.22;;;13.10;63.90;;;;;;5059072;28;20048;-73
2022/01/30 01:36:21;;;;;;;19.48;4.43;;;13.00;63.60;;;;;;5077063;28;20051;-75
2022/01/30 01:38:47;;;;;;;16.20;3.28;;;13.00;63.70;;;;;;5079070;28;20048;-75
2022/01/30 01:41:17;;;;;;;18.02;4.57;;;13.00;63.80;;;;;;5078977;28;20367;-73
2022/01/30 01:43:43;;;;;;;17.02;4.22;;;13.00;63.80;;;;;;5078559;28;20098;-73
2022/01/30 01:46:15;;;;;;;20.08;3.75;;;12.90;64.10;;;;;;5076042;28;20090;-74
2022/01/30 01:48:42;;;;;;;17.15;3.88;;;13.00;63.80;;;;;;5075749;28;20189;-74
2022/01/30 01:51:17;;;;;;;12.52;3.78;;;12.90;63.80;;;;;;5075591;28;20044;-73
2022/01/30 01:53:44;;;;;;;17.40;4.30;;;12.90;63.90;;;;;;5058720;28;20052;-76
2022/01/30 01:56:09;;;;;;;19.58;4.28;;;12.90;64.60;;;;;;5057869;28;20064;-74
2022/01/30 01:58:35;;;;;;;16.75;3.63;;;13.00;63.90;;;;;;5075995;28;20048;-74
2022/01/30 02:01:02;;;;;;;16.73;3.85;;;13.00;63.90;;;;;;5058011;28;20044;-74
2022/01/30 02:03:27;;;;;;;14.02;3.80;;;13.00;63.80;;;;;;5074034;28;20051;-74
2022/01/30 02:05:58;;;;;;;16.55;3.97;;;13.00;63.80;;;;;;5075127;28;20119;-74
2022/01/30 02:08:42;;;;;;;16.83;4.22;;;13.00;63.40;;;;;;5041206;28;20052;-74
2022/01/30 02:11:15;;;;;;;16.27;4.30;;;13.00;63.50;;;;;;5075570;28;20063;-74
2022/01/30 02:27:15;;;;;;;16.63;4.72;;;12.80;63.80;;;;;;5075211;28;20053;-75
2022/01/30 02:29:41;;;;;;;20.13;4.15;;;12.80;63.80;;;;;;5075380;28;20052;-74
2022/01/30 02:32:07;;;;;;;15.80;3.90;;;12.80;63.90;;;;;;5080295;28;20363;-74
2022/01/30 02:34:33;;;;;;;16.20;4.00;;;12.80;63.90;;;;;;5095306;28;20460;-75
2022/01/30 02:36:59;;;;;;;16.90;3.85;;;12.80;64.10;;;;;;5095900;28;20094;-74
2022/01/30 02:39:26;;;;;;;17.55;3.40;;;12.80;64.20;;;;;;5095813;28;20036;-75
2022/01/30 02:41:52;;;;;;;13.15;2.85;;;12.80;64.30;;;;;;5092124;28;20079;-75
2022/01/30 02:44:38;;;;;;;15.02;3.78;;;12.80;64.30;;;;;;5075662;28;20445;-75
2022/01/30 02:47:10;;;;;;;14.43;3.92;;;12.70;64.30;;;;;;5074941;28;20041;-75
2022/01/30 02:50:07;;;;;;;14.75;3.45;;;12.80;64.20;;;;;;5058009;28;20048;-75
2022/01/30 02:52:31;;;;;;;;;;;12.80;64.30;;;;;;5082974;28;20058;-74
2022/01/30 02:54:57;;;;;;;16.45;3.80;;;12.70;63.60;;;;;;5077280;28;19920;-74
2022/01/30 02:57:22;;;;;;;17.98;3.95;;;12.70;64.00;;;;;;5094978;28;20044;-74
2022/01/30 02:59:49;;;;;;;13.25;3.88;;;12.70;64.00;;;;;;5095427;28;20052;-75
2022/01/30 03:02:16;;;;;;;15.18;4.05;;;12.70;64.00;;;;;;5089478;28;20377;-74
2022/01/30 03:04:42;;;;;;;20.65;4.45;;;12.70;64.00;;;;;;5074954;28;20471;-74
2022/01/30 03:07:08;;;;;;;16.67;4.78;;;12.70;64.00;;;;;;5057282;28;20076;-75
2022/01/30 03:09:35;;;;;;;21.65;5.25;;;12.70;63.90;;;;;;5057336;28;20456;-74
2022/01/30 03:12:01;;;;;;;15.90;3.97;;;12.70;63.90;;;;;;5060236;28;20040;-75
2022/01/30 03:14:26;;;;;;;18.27;4.70;;;12.70;63.90;;;;;;5077960;28;20044;-74
2022/01/30 03:16:53;;;;;;;19.67;4.97;;;12.70;63.90;;;;;;5077629;28;20113;-75
2022/01/30 03:19:19;;;;;;;22.33;5.40;;;12.70;63.90;;;;;;5061256;28;20434;-74
2022/01/30 03:21:45;;;;;;;16.55;4.55;;;12.70;63.90;;;;;;5093772;28;20048;-75
2022/01/30 03:24:10;;;;;;;21.33;4.82;;;12.70;64.50;;;;;;5057347;28;20056;-74
2022/01/30 03:26:39;;;;;;;16.65;4.38;;;12.70;64.00;;;;;;5074925;28;20044;-75
2022/01/30 03:29:07;;;;;;;16.38;4.82;;;12.70;64.00;;;;;;5057293;28;20051;-74
2022/01/30 03:31:34;;;;;;;20.48;4.55;;;12.60;63.90;;;;;;5074454;28;20040;-73
2022/01/30 03:34:00;;;;;;;23.95;5.82;;;12.70;64.10;;;;;;5056841;28;20067;-73
2022/01/30 03:36:26;;;;;;;20.50;5.40;;;12.70;63.90;;;;;;5056694;28;20131;-74
2022/01/30 03:38:51;;;;;;;16.95;4.75;;;12.70;64.00;;;;;;5057172;28;20059;-74
2022/01/30 03:41:17;;;;;;;18.98;4.90;;;12.70;64.10;;;;;;5057156;28;20052;-74
2022/01/30 03:43:42;;;;;;;16.45;5.10;;;12.70;64.20;;;;;;5072622;28;20063;-75
2022/01/30 03:46:08;;;;;;;19.05;4.88;;;12.60;64.00;;;;;;5094477;28;20071;-75
2022/01/30 03:48:34;;;;;;;16.67;4.63;;;12.60;64.00;;;;;;5094717;28;20098;-74
2022/01/30 03:50:59;;;;;;;17.55;4.80;;;12.60;64.00;;;;;;5094950;28;20059;-74
2022/01/30 03:53:25;;;;;;;20.10;4.80;;;12.60;64.00;;;;;;5073032;28;20057;-74
2022/01/30 03:55:51;;;;;;;17.30;5.22;;;12.60;63.70;;;;;;5056723;28;20444;-74
2022/01/30 03:58:19;;;;;;;17.67;5.65;;;12.50;63.60;;;;;;5057296;28;20437;-75
2022/01/30 04:00:45;;;;;;;24.00;5.68;;;12.60;63.70;;;;;;5078426;28;20087;-75
2022/01/30 04:03:11;;;;;;;17.48;4.63;;;12.50;63.40;;;;;;5076003;28;20079;-75
2022/01/30 04:05:36;;;;;;;19.10;5.20;;;12.60;63.50;;;;;;5080691;28;20047;-74
2022/01/30 04:08:03;;;;;;;17.50;4.68;;;12.60;63.50;;;;;;5098235;28;20409;-76
2022/01/30 04:10:31;;;;;;;16.42;5.00;;;12.60;63.40;;;;;;5097814;28;20051;-72
2022/01/30 04:12:57;;;;;;;20.00;5.25;;;12.50;62.90;;;;;;5075853;28;20451;-74
2022/01/30 04:15:22;;;;;;;21.15;4.60;;;12.60;62.80;;;;;;5059930;28;20078;-75
2022/01/30 04:17:49;;;;;;;17.90;4.95;;;12.60;63.10;;;;;;5078020;28;20044;-75
2022/01/30 04:20:15;;;;;;;23.10;5.53;;;12.60;63.20;;;;;;5060219;28;20040;-76
2022/01/30 04:22:40;;;;;;;16.67;4.65;;;12.60;62.90;;;;;;5070487;28;20482;-74
2022/01/30 04:25:06;;;;;;;23.42;5.50;;;12.60;62.90;;;;;;5097894;28;20040;-74
2022/01/30 04:27:32;;;;;;;22.30;4.93;;;12.60;62.60;;;;;;5097554;28;20055;-74
2022/01/30 04:29:58;;;;;;;18.05;5.25;;;12.60;62.40;;;;;;5080006;28;20051;-73
2022/01/30 04:32:26;;;;;;;21.58;5.65;;;12.50;62.60;;;;;;5076042;28;20116;-75
2022/01/30 04:34:57;;;;;;;23.35;6.05;;;12.50;62.50;;;;;;5077065;28;20057;-75
2022/01/30 04:37:50;;;;;;;20.33;5.32;;;12.50;62.50;;;;;;5060265;28;20531;-74
2022/01/30 04:59:09;;;;;;;22.98;5.05;;;12.40;62.20;;;;;;5076915;28;20088;-74
2022/01/30 05:06:55;;;;;;;22.20;5.85;;;12.30;62.00;;;;;;5059435;28;20513;-74
2022/01/30 05:09:12;;;;;;;19.88;5.47;;;12.30;61.70;;;;;;5057563;28;20056;-74
2022/01/30 05:11:37;;;;;;;18.77;5.07;;;12.30;62.10;;;;;;5076416;28;20040;-74
2022/01/30 05:14:03;;;;;;;21.70;5.40;;;12.30;62.00;;;;;;5076812;28;20067;-75
2022/01/30 05:16:31;;;;;;;18.83;5.30;;;12.30;61.90;;;;;;5059346;28;20044;-74
2022/01/30 05:18:57;;;;;;;19.50;4.85;;;12.30;61.90;;;;;;5058975;28;20055;-74
2022/01/30 05:21:23;;;;;;;24.45;6.22;;;12.30;62.00;;;;;;5076470;28;20360;-74
2022/01/30 05:23:49;;;;;;;26.20;6.10;;;12.30;61.90;;;;;;5076068;28;20114;-75
2022/01/30 05:26:16;;;;;;;21.55;4.65;;;12.30;61.50;;;;;;5076513;28;20063;-74
2022/01/30 05:28:42;;;;;;;18.98;6.10;;;12.30;61.90;;;;;;5076274;28;20066;-75
2022/01/30 05:31:08;;;;;;;20.63;5.28;;;12.30;61.90;;;;;;5076833;28;20051;-73
2022/01/30 05:33:34;;;;;;;18.70;5.40;;;12.30;61.90;;;;;;5091568;28;20048;-74
2022/01/30 05:36:02;;;;;;;21.13;5.32;;;12.30;61.80;;;;;;5096886;28;20135;-75
2022/01/30 05:38:28;;;;;;;21.55;5.32;;;12.20;61.60;;;;;;5096625;28;20083;-74
2022/01/30 05:40:54;;;;;;;23.92;6.13;;;12.30;62.10;;;;;;5096619;28;20043;-74
2022/01/30 05:43:21;;;;;;;28.25;6.45;;;12.40;62.60;;;;;;5088581;28;20051;-74
2022/01/30 05:45:55;;;;;;;20.58;6.10;;;12.60;62.60;;;;;;5058752;28;20430;-74
2022/01/30 05:48:21;;;;;;;24.67;5.78;;;12.70;62.00;;;;;;5069554;28;20051;-76
2022/01/30 05:50:47;;;;;;;22.70;5.82;;;12.80;61.30;;;;;;5076027;28;20048;-74
2022/01/30 05:53:13;;;;;;;23.30;6.20;;;12.90;60.70;;;;;;5086805;28;20040;-76
2022/01/30 05:55:39;;;;;;;27.45;6.95;;;12.90;59.60;;;;;;5057767;28;20055;-73
2022/01/30 05:58:05;;;;;;;29.23;6.88;;;12.90;58.20;;;;;;5089479;28;20040;-74
2022/01/30 06:00:31;;;;;;;23.73;6.93;;;12.90;57.40;;;;;;5078539;28;20355;-72
2022/01/30 06:02:57;;;;;;;29.45;6.40;;;12.90;56.50;;;;;;5096123;28;20052;-77
2022/01/30 06:05:24;;;;;;;30.05;6.78;;;12.80;55.80;;;;;;5061339;28;20106;-75
2022/01/30 06:07:55;;;;;;;27.65;6.38;;;12.80;55.40;;;;;;5095886;28;20032;-74
2022/01/30 06:10:25;;;;;;;36.00;8.38;;;12.80;54.80;;;;;;5081095;28;20044;-71
2022/01/30 06:12:51;;;;;;;25.70;6.82;;;12.80;55.00;;;;;;5075417;28;20037;-76
2022/01/30 06:15:17;;;;;;;26.58;7.28;;;12.80;55.00;;;;;;5075311;28;20058;-74
2022/01/30 06:17:43;;;;;;;25.50;6.63;;;12.80;55.10;;;;;;5064118;28;20127;-74
2022/01/30 06:20:10;;;;;;;27.55;6.32;;;12.70;55.00;;;;;;5075390;28;20110;-73
2022/01/30 06:22:38;;;;;;;33.28;6.47;;;12.70;55.50;;;;;;5087667;28;20047;-74
2022/01/30 06:25:05;;;;;;;30.77;7.00;;;12.80;56.70;;;;;;5084561;28;20044;-72
2022/01/30 06:27:30;;;;;;;29.45;6.38;;;12.80;58.50;;;;;;5067023;28;20447;-74
2022/01/30 06:29:56;;;;;;;21.60;6.00;;;12.90;57.30;;;;;;5077705;28;20055;-72
2022/01/30 06:32:22;;;;;;;27.35;5.53;;;13.20;57.10;;;;;;5077417;28;20121;-74
2022/01/30 06:34:48;;;;;;;22.38;5.40;;;13.60;57.50;;;;;;5054259;28;20448;-75
2022/01/30 06:37:13;;;;;;;39.53;7.13;;;13.90;57.80;;;;;;5074120;28;20356;-74
2022/01/30 06:39:39;;;;;;;28.23;6.22;;;14.10;58.40;;;;;;5075288;28;20459;-73
2022/01/30 06:42:06;;;;;;;30.90;7.07;;;14.40;59.00;;;;;;5085154;28;20052;-72
2022/01/30 06:44:32;;;;;;;25.92;6.28;;;14.60;59.20;;;;;;5077528;28;20044;-74
2022/01/30 06:46:58;;;;;;;25.92;6.05;;;14.80;59.20;;;;;;5065199;28;20127;-72
2022/01/30 06:49:23;;;;;;;24.55;4.75;;;15.00;59.20;;;;;;5074478;28;20341;-72
2022/01/30 06:51:49;;;;;;;21.80;4.85;;;15.10;59.00;;;;;;5058298;28;20174;-73
2022/01/30 06:54:15;;;;;;;27.55;5.45;;;15.30;59.00;;;;;;5075348;28;20139;-73
2022/01/30 06:56:41;;;;;;;22.80;5.95;;;15.40;59.40;;;;;;5075716;28;20096;-72
2022/01/30 06:59:06;;;;;;;26.75;6.03;;;15.00;59.50;;;;;;5079774;28;20063;-72
2022/01/30 07:01:32;;;;;;;21.77;5.55;;;15.20;60.30;;;;;;5077188;28;20050;-72
2022/01/30 07:03:58;;;;;;;27.60;6.30;;;15.30;60.30;;;;;;5073666;28;20041;-73
2022/01/30 07:06:23;;;;;;;29.35;5.53;;;15.40;60.40;;;;;;5075313;28;20045;-72
2022/01/30 07:08:49;;;;;;;23.08;5.45;;;15.50;60.30;;;;;;5040684;28;20044;-72
2022/01/30 07:11:15;;;;;;;16.60;4.68;;;15.60;60.00;;;;;;5082836;28;20131;-72
2022/01/30 07:13:41;;;;;;;21.27;4.72;;;15.70;60.40;;;;;;5094646;28;20044;-73
2022/01/30 07:16:07;;;;;;;20.85;5.03;;;15.70;60.40;;;;;;5075584;28;20433;-74
2022/01/30 07:18:33;;;;;;;27.02;5.18;;;15.80;60.80;;;;;;5075692;28;20071;-72
2022/01/30 07:20:58;;;;;;;20.55;4.32;;;15.80;59.10;;;;;;5074519;28;20045;-74
2022/01/30 07:23:24;;;;;;;23.67;5.30;;;15.90;61.40;;;;;;5073283;28;20451;-74
2022/01/30 07:25:50;;;;;;;19.92;4.60;;;15.90;60.60;;;;;;5089347;28;20040;-74
2022/01/30 07:28:16;;;;;;;23.83;5.28;;;15.90;60.80;;;;;;5075616;28;20048;-73
2022/01/30 07:30:41;;;;;;;25.13;5.32;;;16.00;61.20;;;;;;5067663;28;20052;-75
2022/01/30 07:33:07;;;;;;;23.50;5.07;;;16.00;61.40;;;;;;5074727;28;20403;-75
2022/01/30 07:35:36;;;;;;;15.55;4.70;;;16.00;61.60;;;;;;5077533;28;20068;-75
2022/01/30 07:38:03;;;;;;;18.38;5.28;;;16.10;61.60;;;;;;5096625;28;20044;-73
2022/01/30 07:40:32;;;;;;;18.85;4.93;;;16.10;61.70;;;;;;5094319;28;20047;-73
2022/01/30 07:42:57;;;;;;;23.00;5.60;;;16.10;61.70;;;;;;5060236;28;20040;-74
2022/01/30 07:45:24;;;;;;;20.63;4.78;;;16.20;60.80;;;;;;5060740;28;20052;-73
2022/01/30 07:47:50;;;;;;;21.63;5.25;;;15.30;57.90;;;;;;5077606;28;20120;-74
2022/01/30 07:50:16;;;;;;;22.85;5.60;;;14.90;61.60;;;;;;5077669;28;20113;-70
2022/01/30 07:52:42;;;;;;;21.83;5.10;;;15.20;62.40;;;;;;5081629;28;20072;-75
2022/01/30 07:55:08;;;;;;;27.30;5.30;;;15.50;62.20;;;;;;5076310;28;20461;-76
2022/01/30 07:57:34;;;;;;;25.27;5.07;;;15.70;61.80;;;;;;5096093;28;20044;-76
2022/01/30 08:00:00;;;;;;;16.42;4.82;;;15.90;61.40;;;;;;5077892;28;20367;-74
2022/01/30 08:02:25;;;;;;;23.02;5.43;;;16.00;60.80;;;;;;5077682;28;20076;-74
2022/01/30 08:04:52;;;;;;;21.63;6.45;;;15.50;56.30;;;;;;5084095;28;20032;-75
2022/01/30 08:07:19;;;;;;;17.20;4.93;;;14.70;58.30;;;;;;5098149;28;20048;-73
2022/01/30 08:09:44;;;;;;;19.88;5.00;;;14.60;60.30;;;;;;5063831;28;20050;-73
2022/01/30 08:12:10;;;;;;;20.17;4.63;;;14.20;60.80;;;;;;5084612;28;20123;-73
2022/01/30 08:14:36;;;;;;;19.20;4.57;;;14.80;63.20;;;;;;5080075;28;20044;-73
2022/01/30 08:17:02;;;;;;;19.40;4.88;;;15.20;62.50;;;;;;5080150;28;20060;-74
2022/01/30 08:19:28;;;;;;;19.77;4.82;;;15.70;61.90;;;;;;5079415;28;20372;-72
2022/01/30 08:21:56;;;;;;;16.52;4.55;;;16.10;61.20;;;;;;5077748;28;20048;-72
2022/01/30 08:24:24;;;;;;;22.35;4.78;;;16.30;60.50;;;;;;5043451;28;20059;-75
2022/01/30 08:26:50;;;;;;;18.67;4.78;;;16.50;60.10;;;;;;5078890;28;20408;-73
2022/01/30 08:29:16;;;;;;;14.98;4.10;;;16.40;59.90;;;;;;5087411;28;20036;-75
2022/01/30 08:31:42;;;;;;;17.70;4.85;;;16.60;59.90;;;;;;5043099;28;20359;-73
2022/01/30 08:34:08;;;;;;;16.27;3.72;;;16.80;59.40;;;;;;5077370;28;20044;-73
2022/01/30 08:36:34;;;;;;;20.13;4.88;;;16.90;59.60;;;;;;5059951;28;20075;-74
2022/01/30 08:39:00;;;;;;;22.77;5.15;;;16.90;56.90;;;;;;5087069;28;20079;-74
2022/01/30 08:41:25;;;;;;;17.10;4.35;;;16.90;56.20;;;;;;5100056;28;20055;-73
2022/01/30 08:43:51;;;;;;;19.30;4.97;;;17.00;56.30;;;;;;5093670;28;20055;-76
2022/01/30 08:46:17;;;;;;;16.60;4.45;;;17.00;56.00;;;;;;5087748;28;20043;-74
2022/01/30 08:48:43;;;;;;;19.52;4.05;;;17.10;56.20;;;;;;5097117;28;20044;-74
2022/01/30 08:51:09;;;;;;;19.13;5.10;;;17.10;56.50;;;;;;5097264;28;20047;-73
2022/01/30 08:53:35;;;;;;;16.63;4.78;;;17.20;55.80;;;;;;5088985;28;20040;-74
2022/01/30 08:56:00;;;;;;;19.13;5.10;;;17.40;55.70;;;;;;5077134;28;20044;-74
2022/01/30 08:58:26;;;;;;;13.02;4.13;;;17.40;55.70;;;;;;5076865;28;20044;-74
2022/01/30 09:00:55;;;;;;;25.08;4.82;;;17.40;55.80;;;;;;5076115;28;20056;-74
2022/01/30 09:03:20;;;;;;;23.67;4.97;;;17.20;55.70;;;;;;5080329;28;20056;-73
2022/01/30 09:05:46;;;;;;;25.40;4.80;;;16.80;53.70;;;;;;5096679;28;20474;-73
2022/01/30 09:08:13;;;;;;;23.65;4.97;;;15.90;56.30;;;;;;5079102;28;20052;-72
2022/01/30 09:10:39;;;;;;;17.48;5.07;;;15.90;58.60;;;;;;5097090;28;20087;-71
2022/01/30 09:13:06;;;;;;;29.83;6.25;;;16.40;58.80;;;;;;5077006;28;20391;-74
2022/01/30 09:15:41;;;;;;;20.90;5.65;;;16.40;52.10;;;;;;5076360;28;20185;-72
2022/01/30 09:18:11;;;;;;;19.13;4.47;;;16.70;58.00;;;;;;5076668;28;20053;-72
2022/01/30 09:20:42;;;;;;;20.20;4.85;;;16.90;57.90;;;;;;5058540;28;20131;-73
2022/01/30 09:23:10;;;;;;;27.30;5.32;;;17.10;57.90;;;;;;5060014;28;20048;-70
2022/01/30 09:25:37;;;;;;;29.20;6.68;;;17.30;57.90;;;;;;5096458;28;20058;-74
2022/01/30 09:28:03;;;;;;;21.73;4.80;;;17.40;57.70;;;;;;5070122;28;20487;-73
2022/01/30 09:30:30;;;;;;;32.97;7.15;;;17.50;57.20;;;;;;5107269;28;20173;-74
2022/01/30 09:32:55;;;;;;;29.92;5.85;;;17.60;56.90;;;;;;5104539;28;20052;-75
2022/01/30 09:35:22;;;;;;;34.45;5.97;;;17.60;57.50;;;;;;5076140;28;20060;-75
2022/01/30 09:37:47;;;;;;;26.88;5.65;;;17.70;57.70;;;;;;5058057;28;20048;-76
2022/01/30 09:40:17;;;;;;;31.42;5.47;;;17.70;57.50;;;;;;5075906;28;20333;-74
2022/01/30 09:42:45;;;;;;;33.65;6.32;;;17.30;52.20;;;;;;5075828;28;20118;-74
2022/01/30 09:45:13;;;;;;;36.42;7.22;;;16.70;58.70;;;;;;5058073;28;20360;-74
2022/01/30 09:47:40;;;;;;;38.90;6.85;;;16.30;53.10;;;;;;5075713;28;20048;-74
2022/01/30 09:50:08;;;;;;;23.92;5.80;;;15.80;59.00;;;;;;5075770;28;20063;-73
2022/01/30 09:52:36;;;;;;;25.88;5.57;;;16.20;60.80;;;;;;5076251;28;20127;-74
2022/01/30 09:55:03;;;;;;;25.90;5.63;;;16.40;59.90;;;;;;5075781;28;20127;-73
2022/01/30 09:57:28;;;;;;;19.80;5.47;;;16.70;59.00;;;;;;5074913;28;20417;-76
2022/01/30 09:59:56;;;;;;;23.80;6.18;;;16.80;58.60;;;;;;5075561;28;20076;-82
2022/01/30 10:02:25;;;;;;;27.98;5.75;;;17.00;58.20;;;;;;5041001;28;20052;-82
2022/01/30 10:04:52;;;;;;;24.13;5.53;;;17.20;57.90;;;;;;5060767;28;20036;-74
2022/01/30 10:07:21;;;;;;;30.67;5.90;;;17.20;57.50;;;;;;5059550;28;20470;-74
2022/01/30 10:09:50;;;;;;;20.75;5.55;;;17.30;57.80;;;;;;5077785;28;20090;-74
2022/01/30 10:12:28;;;;;;;29.17;6.03;;;17.30;57.50;;;;;;5079875;28;20372;-82
2022/01/30 10:14:54;;;;;;;18.55;4.80;;;17.40;57.50;;;;;;5075308;28;20043;-74
2022/01/30 10:17:39;;;;;;;22.58;5.07;;;17.40;57.30;;;;;;5082051;28;20887;-74
2022/01/30 10:20:09;;;;;;;22.00;4.65;;;17.40;57.10;;;;;;5081889;28;20379;-76
2022/01/30 10:22:50;;;;;;;21.70;5.47;;;17.40;57.70;;;;;;5078084;28;20131;-75
2022/01/30 10:25:20;;;;;;;22.70;4.85;;;17.40;57.60;;;;;;5083491;28;20040;-75
2022/01/30 10:27:46;;;;;;;17.08;4.60;;;17.40;57.30;;;;;;5088354;28;20043;-71
2022/01/30 10:30:18;;;;;;;21.50;5.28;;;17.50;58.00;;;;;;5075983;28;20040;-77
2022/01/30 10:32:54;;;;;;;24.17;5.53;;;17.50;58.60;;;;;;5074948;28;20083;-75
2022/01/30 10:35:20;;;;;;;22.70;5.22;;;17.50;57.30;;;;;;5074883;28;20110;-75
2022/01/30 10:37:46;;;;;;;24.92;5.40;;;17.50;57.50;;;;;;5074846;28;20044;-75
2022/01/30 10:40:17;;;;;;;20.48;4.63;;;16.70;51.60;;;;;;5074954;28;20044;-75
2022/01/30 10:42:46;;;;;;;21.90;4.55;;;17.00;57.40;;;;;;5059653;28;20412;-74
2022/01/30 10:45:25;;;;;;;23.73;5.10;;;17.00;58.60;;;;;;5095027;28;20056;-74
2022/01/30 10:47:51;;;;;;;23.75;4.75;;;17.10;58.80;;;;;;5095367;28;20113;-73
2022/01/30 10:50:22;;;;;;;28.73;5.43;;;17.20;59.10;;;;;;5095102;28;20047;-76
2022/01/30 10:52:58;;;;;;;22.88;5.25;;;17.20;59.10;;;;;;5095170;28;20079;-75
2022/01/30 10:55:44;;;;;;;23.00;5.43;;;17.20;58.90;;;;;;5095036;28;20087;-76
2022/01/30 10:58:16;;;;;;;22.88;4.45;;;17.20;59.10;;;;;;5097141;28;20044;-74
2022/01/30 11:00:55;;;;;;;26.80;4.50;;;17.30;59.10;;;;;;5101367;28;20044;-77
2022/01/30 11:03:41;;;;;;;29.15;4.53;;;17.30;59.10;;;;;;5093194;28;20114;-74
2022/01/30 11:06:10;;;;;;;24.15;4.97;;;17.40;59.40;;;;;;5081426;28;20048;-74
2022/01/30 11:08:40;;;;;;;26.85;4.97;;;17.30;59.60;;;;;;5097216;28;20052;-73
2022/01/30 11:11:35;;;;;;;20.05;4.85;;;17.20;57.40;;;;;;5094565;28;20044;-74
2022/01/30 11:19:20;;;;;;;22.02;4.32;;;17.10;56.70;;;;;;5079439;28;20084;-74
2022/01/30 11:21:55;;;;;;;18.23;4.80;;;17.10;55.60;;;;;;5088096;28;20048;-74
2022/01/30 11:24:24;;;;;;;20.25;5.15;;;17.10;55.20;;;;;;5099684;28;20051;-74
2022/01/30 11:26:50;;;;;;;19.55;4.80;;;17.10;55.20;;;;;;5098776;28;20078;-74
2022/01/30 11:29:20;;;;;;;20.05;4.75;;;17.10;55.40;;;;;;5081625;28;20482;-74
2022/01/30 11:31:46;;;;;;;18.38;4.47;;;17.10;55.60;;;;;;5089322;28;20133;-74
2022/01/30 11:34:12;;;;;;;17.83;4.22;;;17.00;55.80;;;;;;5078332;28;20056;-74
2022/01/30 11:36:43;;;;;;;18.40;5.18;;;17.00;56.10;;;;;;5078659;28;20125;-74
2022/01/30 11:39:15;;;;;;;18.05;4.70;;;17.00;56.30;;;;;;5078241;28;20094;-73
2022/01/30 11:41:40;;;;;;;13.77;4.10;;;16.90;56.50;;;;;;5086234;28;20044;-75
2022/01/30 11:44:18;;;;;;;12.55;3.88;;;16.90;56.70;;;;;;5098451;28;20052;-75
2022/01/30 11:46:56;;;;;;;22.55;3.97;;;16.90;56.70;;;;;;5098863;28;20105;-74
2022/01/30 11:49:24;;;;;;;17.70;4.40;;;16.80;56.80;;;;;;5098698;28;20040;-75
2022/01/30 11:51:54;;;;;;;18.40;4.57;;;16.80;57.70;;;;;;5074932;28;20080;-74
2022/01/30 11:54:38;;;;;;;14.30;4.22;;;16.80;57.10;;;;;;5077835;28;20102;-72
2022/01/30 11:57:24;;;;;;;14.98;3.97;;;16.70;57.00;;;;;;5086680;28;20056;-74
2022/01/30 11:59:52;;;;;;;12.50;4.43;;;16.70;57.30;;;;;;5071377;28;20059;-75
2022/01/30 12:02:26;;;;;;;17.90;4.55;;;16.70;57.50;;;;;;5064788;28;20045;-74
2022/01/30 12:04:55;;;;;;;;;;;16.70;57.60;;;;;;5060655;28;20110;-73
2022/01/30 12:07:40;;;;;;;18.50;4.85;;;16.70;57.70;;;;;;5077718;28;19924;-75
2022/01/30 12:10:15;;;;;;;16.55;4.32;;;16.70;58.20;;;;;;5084513;28;20040;-75
2022/01/30 12:12:50;;;;;;;19.15;4.20;;;16.80;57.40;;;;;;5077793;28;20033;-76
2022/01/30 12:15:41;;;;;;;15.38;3.53;;;16.80;57.20;;;;;;5081389;28;20051;-76
2022/01/30 12:18:12;;;;;;;18.58;3.92;;;16.80;57.10;;;;;;5077751;28;20123;-75
2022/01/30 12:20:56;;;;;;;15.65;4.50;;;16.80;57.40;;;;;;5076832;28;20149;-75
2022/01/30 12:23:30;;;;;;;15.75;4.45;;;16.80;57.40;;;;;;5077426;28;20044;-74
2022/01/30 12:26:15;;;;;;;12.93;3.78;;;16.80;57.60;;;;;;5080769;28;20089;-75
2022/01/30 12:28:54;;;;;;;16.15;3.85;;;16.80;57.70;;;;;;5077414;28;20434;-75
2022/01/30 12:31:30;;;;;;;14.27;3.70;;;16.80;57.80;;;;;;5077231;28;20045;-75
2022/01/30 12:34:08;;;;;;;11.93;3.72;;;16.80;58.00;;;;;;5077510;28;20157;-74
2022/01/30 12:36:54;;;;;;;10.25;3.60;;;16.80;58.20;;;;;;5096787;28;20561;-75
2022/01/30 12:39:22;;;;;;;11.88;3.85;;;16.80;58.30;;;;;;5092049;28;20046;-76
2022/01/30 12:41:51;;;;;;;12.98;3.45;;;16.80;58.10;;;;;;5077374;28;20114;-76
2022/01/30 12:44:23;;;;;;;14.63;4.32;;;16.80;57.50;;;;;;5089997;28;20110;-76
2022/01/30 12:46:53;;;;;;;15.85;4.47;;;16.80;57.30;;;;;;5061198;28;20059;-76
2022/01/30 12:49:24;;;;;;;15.20;3.70;;;16.80;57.60;;;;;;5076823;28;20123;-75
2022/01/30 12:51:52;;;;;;;12.43;3.70;;;16.80;57.70;;;;;;5082719;28;20036;-75
2022/01/30 12:54:21;;;;;;;12.02;3.75;;;16.80;57.90;;;;;;5081186;28;20055;-75
2022/01/30 12:56:49;;;;;;;14.55;3.70;;;16.80;57.90;;;;;;5075200;28;20055;-77
2022/01/30 12:59:16;;;;;;;13.43;3.80;;;16.80;58.10;;;;;;5058567;28;20044;-76
2022/01/30 13:01:47;;;;;;;17.02;4.68;;;16.80;58.20;;;;;;5088018;28;20120;-75
2022/01/30 13:04:26;;;;;;;13.90;3.63;;;16.80;58.40;;;;;;5076757;28;20044;-75
2022/01/30 13:06:52;;;;;;;14.30;4.30;;;16.80;58.20;;;;;;5076453;28;20048;-75
2022/01/30 13:09:21;;;;;;;15.48;4.00;;;16.80;58.10;;;;;;5076818;28;20036;-75
2022/01/30 13:11:47;;;;;;;15.63;4.20;;;16.80;58.10;;;;;;5079281;28;20205;-75
2022/01/30 13:14:13;;;;;;;20.05;4.38;;;16.80;58.20;;;;;;5096823;28;20059;-75
2022/01/30 13:16:44;;;;;;;16.60;4.18;;;16.80;58.30;;;;;;5080770;28;20070;-75
2022/01/30 13:19:13;;;;;;;15.88;4.22;;;16.90;58.60;;;;;;5096449;28;20044;-75
2022/01/30 13:21:45;;;;;;;15.95;4.03;;;16.90;58.60;;;;;;5095777;28;20044;-75
2022/01/30 13:24:18;;;;;;;17.08;4.03;;;16.80;58.40;;;;;;5076782;28;20041;-76
2022/01/30 13:26:44;;;;;;;36.43;5.97;;;16.80;58.50;;;;;;5059025;28;20353;-75
2022/01/30 13:29:12;;;;;;;17.65;4.55;;;16.80;58.60;;;;;;5075154;28;20140;-75
2022/01/30 13:31:38;;;;;;;20.05;3.78;;;16.80;58.50;;;;;;5100459;28;20040;-75
2022/01/30 13:34:14;;;;;;;18.52;4.03;;;16.80;58.50;;;;;;5078930;28;20137;-74
2022/01/30 13:36:42;;;;;;;19.17;4.15;;;16.90;58.60;;;;;;5075695;28;20467;-74
2022/01/30 13:39:15;;;;;;;17.65;4.18;;;16.90;58.90;;;;;;5075875;28;20055;-74
2022/01/30 13:41:47;;;;;;;15.70;4.18;;;16.90;58.90;;;;;;5076073;28;20048;-74
2022/01/30 13:44:24;;;;;;;22.33;4.65;;;16.90;59.00;;;;;;5075646;28;20040;-75